sensor_id;sensor_type;location;lat;lon;timestamp;temperature;humidity
40151;DHT22;25866;52.420;10.640;2022-11-20T00:01:15;-0.70;99.90
40151;DHT22;25866;52.420;10.640;2022-11-20T00:03:41;-0.70;99.90
40151;DHT22;25866;52.420;10.640;2022-11-20T00:06:10;-0.70;99.90
40151;DHT22;25866;52.420;10.640;2022-11-20T00:08:36;-0.70;99.90
40151;DHT22;25866;52.420;10.640;2022-11-20T00:11:15;-0.70;99.90
40151;DHT22;25866;52.420;10.640;2022-11-20T00:13:45;-0.70;99.90
40151;DHT22;25866;52.420;10.640;2022-11-20T00:16:13;-0.70;99.90
40151;DHT22;25866;52.420;10.640;2022-11-20T00:18:39;-0.70;99.90
40151;DHT22;25866;52.420;10.640;2022-11-20T00:21:16;-0.70;99.90
40151;DHT22;25866;52.420;10.640;2022-11-20T00:23:42;-0.70;99.90
40151;DHT22;25866;52.420;10.640;2022-11-20T00:26:14;-0.70;99.90
40151;DHT22;25866;52.420;10.640;2022-11-20T00:28:41;-0.70;99.90
40151;DHT22;25866;52.420;10.640;2022-11-20T00:31:10;-0.70;99.90
40151;DHT22;25866;52.420;10.640;2022-11-20T00:33:36;-0.70;99.90
40151;DHT22;25866;52.420;10.640;2022-11-20T00:36:08;-0.70;99.90
40151;DHT22;25866;52.420;10.640;2022-11-20T00:38:34;-0.70;99.90
40151;DHT22;25866;52.420;10.640;2022-11-20T00:41:03;-0.70;99.90
40151;DHT22;25866;52.420;10.640;2022-11-20T00:43:30;-0.70;99.90
40151;DHT22;25866;52.420;10.640;2022-11-20T00:45:57;-0.70;99.90
40151;DHT22;25866;52.420;10.640;2022-11-20T00:48:23;-0.80;99.90
40151;DHT22;25866;52.420;10.640;2022-11-20T00:50:49;-0.70;99.90
40151;DHT22;25866;52.420;10.640;2022-11-20T00:53:15;-0.80;99.90
40151;DHT22;25866;52.420;10.640;2022-11-20T00:55:41;-0.70;99.90
40151;DHT22;25866;52.420;10.640;2022-11-20T00:58:06;-0.70;99.90
40151;DHT22;25866;52.420;10.640;2022-11-20T01:00:32;-0.70;99.90
40151;DHT22;25866;52.420;10.640;2022-11-20T01:02:58;-0.70;99.90
40151;DHT22;25866;52.420;10.640;2022-11-20T01:05:23;-0.70;99.90
40151;DHT22;25866;52.420;10.640;2022-11-20T01:07:49;-0.70;99.90
40151;DHT22;25866;52.420;10.640;2022-11-20T01:10:15;-0.70;99.90
40151;DHT22;25866;52.420;10.640;2022-11-20T01:12:44;-0.70;99.90
40151;DHT22;25866;52.420;10.640;2022-11-20T01:15:30;-0.70;99.90
40151;DHT22;25866;52.420;10.640;2022-11-20T01:17:58;-0.70;99.90
40151;DHT22;25866;52.420;10.640;2022-11-20T01:20:24;-0.70;99.90
40151;DHT22;25866;52.420;10.640;2022-11-20T01:22:50;-0.70;99.90
40151;DHT22;25866;52.420;10.640;2022-11-20T01:25:15;-0.70;99.90
40151;DHT22;25866;52.420;10.640;2022-11-20T01:27:41;-0.70;99.90
40151;DHT22;25866;52.420;10.640;2022-11-20T01:30:07;-0.70;99.90
40151;DHT22;25866;52.420;10.640;2022-11-20T01:32:33;-0.60;99.90
40151;DHT22;25866;52.420;10.640;2022-11-20T01:34:58;-0.70;99.90
40151;DHT22;25866;52.420;10.640;2022-11-20T01:37:24;-0.60;99.90
40151;DHT22;25866;52.420;10.640;2022-11-20T01:39:50;-0.60;99.90
40151;DHT22;25866;52.420;10.640;2022-11-20T01:42:16;-0.60;99.90
40151;DHT22;25866;52.420;10.640;2022-11-20T01:45:00;-0.60;99.90
40151;DHT22;25866;52.420;10.640;2022-11-20T01:47:43;-0.60;99.90
40151;DHT22;25866;52.420;10.640;2022-11-20T01:50:22;-0.60;99.90
40151;DHT22;25866;52.420;10.640;2022-11-20T01:52:56;-0.60;99.90
40151;DHT22;25866;52.420;10.640;2022-11-20T01:55:30;-0.60;99.90
40151;DHT22;25866;52.420;10.640;2022-11-20T01:57:56;-0.60;99.90
40151;DHT22;25866;52.420;10.640;2022-11-20T02:00:23;-0.60;99.90
40151;DHT22;25866;52.420;10.640;2022-11-20T02:02:55;-0.60;99.90
40151;DHT22;25866;52.420;10.640;2022-11-20T02:05:41;-0.60;99.90
40151;DHT22;25866;52.420;10.640;2022-11-20T02:08:09;-0.60;99.90
40151;DHT22;25866;52.420;10.640;2022-11-20T02:10:34;-0.60;99.90
40151;DHT22;25866;52.420;10.640;2022-11-20T02:13:00;-0.70;99.90
40151;DHT22;25866;52.420;10.640;2022-11-20T02:15:46;-0.60;99.90
40151;DHT22;25866;52.420;10.640;2022-11-20T02:18:14;-0.60;99.90
40151;DHT22;25866;52.420;10.640;2022-11-20T02:20:42;-0.60;99.90
40151;DHT22;25866;52.420;10.640;2022-11-20T02:23:12;-0.60;99.90
40151;DHT22;25866;52.420;10.640;2022-11-20T02:25:41;-0.60;99.90
40151;DHT22;25866;52.420;10.640;2022-11-20T02:28:08;-0.60;99.90
40151;DHT22;25866;52.420;10.640;2022-11-20T02:30:35;-0.70;99.90
40151;DHT22;25866;52.420;10.640;2022-11-20T02:33:00;-0.70;99.90
40151;DHT22;25866;52.420;10.640;2022-11-20T02:37:54;-0.70;99.90
40151;DHT22;25866;52.420;10.640;2022-11-20T02:40:21;-0.70;99.90
40151;DHT22;25866;52.420;10.640;2022-11-20T02:42:47;-0.70;99.90
40151;DHT22;25866;52.420;10.640;2022-11-20T02:45:13;-0.70;99.90
40151;DHT22;25866;52.420;10.640;2022-11-20T02:47:38;-0.70;99.90
40151;DHT22;25866;52.420;10.640;2022-11-20T02:50:05;-0.70;99.90
40151;DHT22;25866;52.420;10.640;2022-11-20T02:52:31;-0.70;99.90
40151;DHT22;25866;52.420;10.640;2022-11-20T02:54:56;-0.70;99.90
40151;DHT22;25866;52.420;10.640;2022-11-20T02:57:22;-0.70;99.90
40151;DHT22;25866;52.420;10.640;2022-11-20T02:59:48;-0.80;99.90
40151;DHT22;25866;52.420;10.640;2022-11-20T03:02:13;-0.80;99.90
40151;DHT22;25866;52.420;10.640;2022-11-20T03:04:39;-0.80;99.90
40151;DHT22;25866;52.420;10.640;2022-11-20T03:07:05;-0.80;99.90
40151;DHT22;25866;52.420;10.640;2022-11-20T03:09:31;-0.80;99.90
40151;DHT22;25866;52.420;10.640;2022-11-20T03:11:56;-0.80;99.90
40151;DHT22;25866;52.420;10.640;2022-11-20T03:14:22;-0.70;99.90
40151;DHT22;25866;52.420;10.640;2022-11-20T03:16:48;-0.70;99.90
40151;DHT22;25866;52.420;10.640;2022-11-20T03:19:13;-0.70;99.90
40151;DHT22;25866;52.420;10.640;2022-11-20T03:21:39;-0.80;99.90
40151;DHT22;25866;52.420;10.640;2022-11-20T03:24:05;-0.70;99.90
40151;DHT22;25866;52.420;10.640;2022-11-20T03:26:31;-0.80;99.90
40151;DHT22;25866;52.420;10.640;2022-11-20T03:28:59;-0.70;99.90
40151;DHT22;25866;52.420;10.640;2022-11-20T03:31:34;-0.70;99.90
40151;DHT22;25866;52.420;10.640;2022-11-20T03:34:01;-0.80;99.90
40151;DHT22;25866;52.420;10.640;2022-11-20T03:36:28;-0.80;99.90
40151;DHT22;25866;52.420;10.640;2022-11-20T03:38:54;-0.80;99.90
40151;DHT22;25866;52.420;10.640;2022-11-20T03:41:25;-0.80;99.90
40151;DHT22;25866;52.420;10.640;2022-11-20T03:43:54;-0.80;99.90
40151;DHT22;25866;52.420;10.640;2022-11-20T03:46:20;-0.80;99.90
40151;DHT22;25866;52.420;10.640;2022-11-20T03:48:46;-0.80;99.90
40151;DHT22;25866;52.420;10.640;2022-11-20T03:51:13;-0.80;99.90
40151;DHT22;25866;52.420;10.640;2022-11-20T03:53:40;-0.80;99.90
40151;DHT22;25866;52.420;10.640;2022-11-20T03:56:06;-0.80;99.90
40151;DHT22;25866;52.420;10.640;2022-11-20T03:58:33;-0.80;99.90
40151;DHT22;25866;52.420;10.640;2022-11-20T04:01:12;-0.80;99.90
40151;DHT22;25866;52.420;10.640;2022-11-20T04:03:39;-0.70;99.90
40151;DHT22;25866;52.420;10.640;2022-11-20T04:06:11;-0.80;99.90
40151;DHT22;25866;52.420;10.640;2022-11-20T04:08:38;-0.80;99.90
40151;DHT22;25866;52.420;10.640;2022-11-20T04:11:15;-0.70;99.90
40151;DHT22;25866;52.420;10.640;2022-11-20T04:13:45;-0.80;99.90
40151;DHT22;25866;52.420;10.640;2022-11-20T04:16:11;-0.80;99.90
40151;DHT22;25866;52.420;10.640;2022-11-20T04:18:37;-0.80;99.90
40151;DHT22;25866;52.420;10.640;2022-11-20T04:21:03;-0.80;99.90
40151;DHT22;25866;52.420;10.640;2022-11-20T04:23:29;-0.80;99.90
40151;DHT22;25866;52.420;10.640;2022-11-20T04:26:02;-0.80;99.90
40151;DHT22;25866;52.420;10.640;2022-11-20T04:28:28;-0.80;99.90
40151;DHT22;25866;52.420;10.640;2022-11-20T04:30:54;-0.70;99.90
40151;DHT22;25866;52.420;10.640;2022-11-20T04:33:19;-0.80;99.90
40151;DHT22;25866;52.420;10.640;2022-11-20T04:35:47;-0.80;99.90
40151;DHT22;25866;52.420;10.640;2022-11-20T04:38:13;-0.80;99.90
40151;DHT22;25866;52.420;10.640;2022-11-20T04:40:39;-0.80;99.90
40151;DHT22;25866;52.420;10.640;2022-11-20T04:43:04;-0.80;99.90
40151;DHT22;25866;52.420;10.640;2022-11-20T04:45:30;-0.80;99.90
40151;DHT22;25866;52.420;10.640;2022-11-20T04:47:56;-0.80;99.90
40151;DHT22;25866;52.420;10.640;2022-11-20T04:50:21;-0.80;99.90
40151;DHT22;25866;52.420;10.640;2022-11-20T04:52:47;-0.80;99.90
40151;DHT22;25866;52.420;10.640;2022-11-20T04:55:13;-0.80;99.90
40151;DHT22;25866;52.420;10.640;2022-11-20T04:57:38;-0.80;99.90
40151;DHT22;25866;52.420;10.640;2022-11-20T05:00:04;-0.80;99.90
40151;DHT22;25866;52.420;10.640;2022-11-20T05:02:31;-0.80;99.90
40151;DHT22;25866;52.420;10.640;2022-11-20T05:04:57;-0.70;99.90
40151;DHT22;25866;52.420;10.640;2022-11-20T05:07:23;-0.80;99.90
40151;DHT22;25866;52.420;10.640;2022-11-20T05:09:48;-0.80;99.90
40151;DHT22;25866;52.420;10.640;2022-11-20T05:12:14;-0.80;99.90
40151;DHT22;25866;52.420;10.640;2022-11-20T05:14:40;-0.80;99.90
40151;DHT22;25866;52.420;10.640;2022-11-20T05:17:05;-0.70;99.90
40151;DHT22;25866;52.420;10.640;2022-11-20T05:19:31;-0.70;99.90
40151;DHT22;25866;52.420;10.640;2022-11-20T05:21:57;-0.80;99.90
40151;DHT22;25866;52.420;10.640;2022-11-20T05:24:23;-0.70;99.90
40151;DHT22;25866;52.420;10.640;2022-11-20T05:26:48;-0.80;99.90
40151;DHT22;25866;52.420;10.640;2022-11-20T05:29:14;-0.90;99.90
40151;DHT22;25866;52.420;10.640;2022-11-20T05:31:40;-0.80;99.90
40151;DHT22;25866;52.420;10.640;2022-11-20T05:34:06;-0.80;99.90
40151;DHT22;25866;52.420;10.640;2022-11-20T05:36:32;-0.80;99.90
40151;DHT22;25866;52.420;10.640;2022-11-20T05:38:58;-0.80;99.90
40151;DHT22;25866;52.420;10.640;2022-11-20T05:41:24;-0.90;99.90
40151;DHT22;25866;52.420;10.640;2022-11-20T05:43:50;-0.80;99.90
40151;DHT22;25866;52.420;10.640;2022-11-20T05:46:18;-0.80;99.90
40151;DHT22;25866;52.420;10.640;2022-11-20T05:48:45;-0.80;99.90
40151;DHT22;25866;52.420;10.640;2022-11-20T05:51:14;-0.80;99.90
40151;DHT22;25866;52.420;10.640;2022-11-20T05:53:40;-0.80;99.90
40151;DHT22;25866;52.420;10.640;2022-11-20T05:56:11;-0.80;99.90
40151;DHT22;25866;52.420;10.640;2022-11-20T05:58:37;-0.80;99.90
40151;DHT22;25866;52.420;10.640;2022-11-20T06:03:30;-0.80;99.90
40151;DHT22;25866;52.420;10.640;2022-11-20T06:05:56;-0.80;99.90
40151;DHT22;25866;52.420;10.640;2022-11-20T06:08:21;-0.80;99.90
40151;DHT22;25866;52.420;10.640;2022-11-20T06:10:47;-0.80;99.90
40151;DHT22;25866;52.420;10.640;2022-11-20T06:13:13;-0.80;99.90
40151;DHT22;25866;52.420;10.640;2022-11-20T06:15:38;-0.80;99.90
40151;DHT22;25866;52.420;10.640;2022-11-20T06:18:04;-0.80;99.90
40151;DHT22;25866;52.420;10.640;2022-11-20T06:20:30;-0.80;99.90
40151;DHT22;25866;52.420;10.640;2022-11-20T06:22:55;-0.80;99.90
40151;DHT22;25866;52.420;10.640;2022-11-20T06:25:21;-0.80;99.90
40151;DHT22;25866;52.420;10.640;2022-11-20T06:27:47;-0.80;99.90
40151;DHT22;25866;52.420;10.640;2022-11-20T06:30:14;-0.80;99.90
40151;DHT22;25866;52.420;10.640;2022-11-20T06:32:40;-0.80;99.90
40151;DHT22;25866;52.420;10.640;2022-11-20T06:35:05;-0.80;99.90
40151;DHT22;25866;52.420;10.640;2022-11-20T06:37:31;-0.80;99.90
40151;DHT22;25866;52.420;10.640;2022-11-20T06:39:57;-0.80;99.90
40151;DHT22;25866;52.420;10.640;2022-11-20T06:42:23;-0.70;99.90
40151;DHT22;25866;52.420;10.640;2022-11-20T06:44:48;-0.70;99.90
40151;DHT22;25866;52.420;10.640;2022-11-20T06:47:14;-0.70;99.90
40151;DHT22;25866;52.420;10.640;2022-11-20T06:49:43;-0.70;99.90
40151;DHT22;25866;52.420;10.640;2022-11-20T06:52:09;-0.70;99.90
40151;DHT22;25866;52.420;10.640;2022-11-20T06:54:34;-0.70;99.90
40151;DHT22;25866;52.420;10.640;2022-11-20T06:57:00;-0.70;99.90
40151;DHT22;25866;52.420;10.640;2022-11-20T06:59:26;-0.70;99.90
40151;DHT22;25866;52.420;10.640;2022-11-20T07:01:51;-0.70;99.90
40151;DHT22;25866;52.420;10.640;2022-11-20T07:04:17;-0.70;99.90
40151;DHT22;25866;52.420;10.640;2022-11-20T07:06:43;-0.70;99.90
40151;DHT22;25866;52.420;10.640;2022-11-20T07:09:09;-0.70;99.90
40151;DHT22;25866;52.420;10.640;2022-11-20T07:11:35;-0.70;99.90
40151;DHT22;25866;52.420;10.640;2022-11-20T07:14:00;-0.70;99.90
40151;DHT22;25866;52.420;10.640;2022-11-20T07:16:26;-0.70;99.90
40151;DHT22;25866;52.420;10.640;2022-11-20T07:18:52;-0.70;99.90
40151;DHT22;25866;52.420;10.640;2022-11-20T07:21:18;-0.60;99.90
40151;DHT22;25866;52.420;10.640;2022-11-20T07:23:44;-0.60;99.90
40151;DHT22;25866;52.420;10.640;2022-11-20T07:26:11;-0.60;99.90
40151;DHT22;25866;52.420;10.640;2022-11-20T07:28:36;-0.60;99.90
40151;DHT22;25866;52.420;10.640;2022-11-20T07:31:03;-0.60;99.90
40151;DHT22;25866;52.420;10.640;2022-11-20T07:33:29;-0.60;99.90
40151;DHT22;25866;52.420;10.640;2022-11-20T07:35:57;-0.60;99.90
40151;DHT22;25866;52.420;10.640;2022-11-20T07:38:23;-0.50;99.90
40151;DHT22;25866;52.420;10.640;2022-11-20T07:40:53;-0.50;99.90
40151;DHT22;25866;52.420;10.640;2022-11-20T07:43:20;-0.50;99.90
40151;DHT22;25866;52.420;10.640;2022-11-20T07:45:45;-0.50;99.90
40151;DHT22;25866;52.420;10.640;2022-11-20T07:48:11;-0.50;99.90
40151;DHT22;25866;52.420;10.640;2022-11-20T07:50:37;-0.50;99.90
40151;DHT22;25866;52.420;10.640;2022-11-20T07:53:06;-0.50;99.90
40151;DHT22;25866;52.420;10.640;2022-11-20T07:55:32;-0.40;99.90
40151;DHT22;25866;52.420;10.640;2022-11-20T07:57:58;-0.50;99.90
40151;DHT22;25866;52.420;10.640;2022-11-20T08:00:25;-0.40;99.90
40151;DHT22;25866;52.420;10.640;2022-11-20T08:02:51;-0.40;99.90
40151;DHT22;25866;52.420;10.640;2022-11-20T08:05:17;-0.40;99.90
40151;DHT22;25866;52.420;10.640;2022-11-20T08:07:43;-0.40;99.90
40151;DHT22;25866;52.420;10.640;2022-11-20T08:10:11;-0.40;99.90
40151;DHT22;25866;52.420;10.640;2022-11-20T08:12:49;-0.50;99.90
40151;DHT22;25866;52.420;10.640;2022-11-20T08:15:33;-0.40;99.90
40151;DHT22;25866;52.420;10.640;2022-11-20T08:18:04;-0.40;99.90
40151;DHT22;25866;52.420;10.640;2022-11-20T08:20:30;-0.40;99.90
40151;DHT22;25866;52.420;10.640;2022-11-20T08:23:00;-0.40;99.90
40151;DHT22;25866;52.420;10.640;2022-11-20T08:25:27;-0.40;99.90
40151;DHT22;25866;52.420;10.640;2022-11-20T08:27:53;-0.40;99.90
40151;DHT22;25866;52.420;10.640;2022-11-20T08:30:19;-0.30;99.90
40151;DHT22;25866;52.420;10.640;2022-11-20T08:32:44;-0.30;99.90
40151;DHT22;25866;52.420;10.640;2022-11-20T08:35:10;-0.30;99.90
40151;DHT22;25866;52.420;10.640;2022-11-20T08:37:36;-0.30;99.90
40151;DHT22;25866;52.420;10.640;2022-11-20T08:40:04;-0.30;99.90
40151;DHT22;25866;52.420;10.640;2022-11-20T08:42:30;-0.30;99.90
40151;DHT22;25866;52.420;10.640;2022-11-20T08:44:55;-0.30;99.90
40151;DHT22;25866;52.420;10.640;2022-11-20T08:47:24;-0.20;99.90
40151;DHT22;25866;52.420;10.640;2022-11-20T08:49:50;-0.20;99.90
40151;DHT22;25866;52.420;10.640;2022-11-20T08:52:16;-0.20;99.90
40151;DHT22;25866;52.420;10.640;2022-11-20T08:54:41;-0.20;99.90
40151;DHT22;25866;52.420;10.640;2022-11-20T08:57:07;-0.20;99.90
40151;DHT22;25866;52.420;10.640;2022-11-20T08:59:33;-0.20;99.90
40151;DHT22;25866;52.420;10.640;2022-11-20T09:01:58;-0.20;99.90
40151;DHT22;25866;52.420;10.640;2022-11-20T09:04:24;-0.10;99.90
40151;DHT22;25866;52.420;10.640;2022-11-20T09:06:50;-0.10;99.90
40151;DHT22;25866;52.420;10.640;2022-11-20T09:09:17;0.00;99.90
40151;DHT22;25866;52.420;10.640;2022-11-20T09:11:44;-0.10;99.90
40151;DHT22;25866;52.420;10.640;2022-11-20T09:14:09;0.00;99.90
40151;DHT22;25866;52.420;10.640;2022-11-20T09:16:35;0.00;99.90
40151;DHT22;25866;52.420;10.640;2022-11-20T09:19:01;0.00;99.90
40151;DHT22;25866;52.420;10.640;2022-11-20T09:21:27;0.10;99.90
40151;DHT22;25866;52.420;10.640;2022-11-20T09:23:52;0.20;99.90
40151;DHT22;25866;52.420;10.640;2022-11-20T09:26:18;0.30;99.90
40151;DHT22;25866;52.420;10.640;2022-11-20T09:28:44;0.40;99.90
40151;DHT22;25866;52.420;10.640;2022-11-20T09:31:24;0.40;99.90
40151;DHT22;25866;52.420;10.640;2022-11-20T09:33:51;0.40;99.90
40151;DHT22;25866;52.420;10.640;2022-11-20T09:36:17;0.40;99.90
40151;DHT22;25866;52.420;10.640;2022-11-20T09:38:47;0.40;99.90
40151;DHT22;25866;52.420;10.640;2022-11-20T09:52:09;0.30;99.90
40151;DHT22;25866;52.420;10.640;2022-11-20T09:54:39;0.40;99.90
40151;DHT22;25866;52.420;10.640;2022-11-20T09:57:17;0.40;99.90
40151;DHT22;25866;52.420;10.640;2022-11-20T09:59:51;0.40;99.90
40151;DHT22;25866;52.420;10.640;2022-11-20T10:05:22;0.50;99.90
40151;DHT22;25866;52.420;10.640;2022-11-20T10:08:20;0.50;99.90
40151;DHT22;25866;52.420;10.640;2022-11-20T10:11:08;0.50;99.90
40151;DHT22;25866;52.420;10.640;2022-11-20T10:22:07;0.50;99.90
40151;DHT22;25866;52.420;10.640;2022-11-20T10:24:55;0.50;99.90
40151;DHT22;25866;52.420;10.640;2022-11-20T10:27:27;0.50;99.90
40151;DHT22;25866;52.420;10.640;2022-11-20T10:32:39;0.60;99.90
40151;DHT22;25866;52.420;10.640;2022-11-20T10:35:37;0.70;99.90
40151;DHT22;25866;52.420;10.640;2022-11-20T10:38:03;0.80;99.90
40151;DHT22;25866;52.420;10.640;2022-11-20T10:43:01;0.90;99.90
40151;DHT22;25866;52.420;10.640;2022-11-20T10:45:38;0.80;99.90
40151;DHT22;25866;52.420;10.640;2022-11-20T10:48:15;0.80;99.90
40151;DHT22;25866;52.420;10.640;2022-11-20T10:51:15;0.90;99.90
40151;DHT22;25866;52.420;10.640;2022-11-20T10:54:11;0.90;99.90
40151;DHT22;25866;52.420;10.640;2022-11-20T10:56:51;0.90;99.90
40151;DHT22;25866;52.420;10.640;2022-11-20T10:59:55;0.80;99.90
40151;DHT22;25866;52.420;10.640;2022-11-20T11:02:32;0.90;99.90
40151;DHT22;25866;52.420;10.640;2022-11-20T11:05:08;0.90;99.90
40151;DHT22;25866;52.420;10.640;2022-11-20T11:07:38;1.00;99.90
40151;DHT22;25866;52.420;10.640;2022-11-20T11:10:15;1.00;99.90
40151;DHT22;25866;52.420;10.640;2022-11-20T11:12:46;1.10;99.90
40151;DHT22;25866;52.420;10.640;2022-11-20T11:15:40;1.20;99.90
40151;DHT22;25866;52.420;10.640;2022-11-20T11:18:10;1.20;99.90
40151;DHT22;25866;52.420;10.640;2022-11-20T11:20:36;1.20;99.90
40151;DHT22;25866;52.420;10.640;2022-11-20T11:23:02;1.20;99.90
40151;DHT22;25866;52.420;10.640;2022-11-20T11:25:36;1.30;99.90
40151;DHT22;25866;52.420;10.640;2022-11-20T11:28:17;1.30;99.90
40151;DHT22;25866;52.420;10.640;2022-11-20T11:30:45;1.30;99.90
40151;DHT22;25866;52.420;10.640;2022-11-20T11:33:31;1.30;99.90
40151;DHT22;25866;52.420;10.640;2022-11-20T11:36:20;1.30;99.90
40151;DHT22;25866;52.420;10.640;2022-11-20T11:38:51;1.30;99.90
40151;DHT22;25866;52.420;10.640;2022-11-20T11:41:22;1.40;99.90
40151;DHT22;25866;52.420;10.640;2022-11-20T11:43:57;1.40;99.90
40151;DHT22;25866;52.420;10.640;2022-11-20T11:46:52;1.30;99.90
40151;DHT22;25866;52.420;10.640;2022-11-20T11:49:19;1.30;99.90
40151;DHT22;25866;52.420;10.640;2022-11-20T11:52:02;1.30;99.90
40151;DHT22;25866;52.420;10.640;2022-11-20T11:54:39;1.20;99.90
40151;DHT22;25866;52.420;10.640;2022-11-20T12:00:29;1.10;99.90
40151;DHT22;25866;52.420;10.640;2022-11-20T12:03:15;1.00;99.90
40151;DHT22;25866;52.420;10.640;2022-11-20T12:06:01;0.90;99.90
40151;DHT22;25866;52.420;10.640;2022-11-20T12:08:35;0.90;99.90
40151;DHT22;25866;52.420;10.640;2022-11-20T12:11:11;0.80;99.90
40151;DHT22;25866;52.420;10.640;2022-11-20T12:13:50;0.70;99.90
40151;DHT22;25866;52.420;10.640;2022-11-20T12:16:19;0.70;99.90
40151;DHT22;25866;52.420;10.640;2022-11-20T12:18:52;0.60;99.90
40151;DHT22;25866;52.420;10.640;2022-11-20T12:21:34;0.70;99.90
40151;DHT22;25866;52.420;10.640;2022-11-20T12:27:29;0.70;99.90
40151;DHT22;25866;52.420;10.640;2022-11-20T12:30:09;0.80;99.90
40151;DHT22;25866;52.420;10.640;2022-11-20T12:47:48;0.90;99.90
40151;DHT22;25866;52.420;10.640;2022-11-20T12:52:57;1.00;99.90
40151;DHT22;25866;52.420;10.640;2022-11-20T13:01:18;1.00;99.90
40151;DHT22;25866;52.420;10.640;2022-11-20T13:06:50;0.90;99.90
40151;DHT22;25866;52.420;10.640;2022-11-20T13:09:19;1.00;99.90
40151;DHT22;25866;52.420;10.640;2022-11-20T13:17:13;1.10;99.90
40151;DHT22;25866;52.420;10.640;2022-11-20T13:19:41;1.10;99.90
40151;DHT22;25866;52.420;10.640;2022-11-20T13:22:08;1.10;99.90
40151;DHT22;25866;52.420;10.640;2022-11-20T13:24:35;1.10;99.90
40151;DHT22;25866;52.420;10.640;2022-11-20T13:29:43;0.90;99.90
40151;DHT22;25866;52.420;10.640;2022-11-20T13:32:18;0.90;99.90
40151;DHT22;25866;52.420;10.640;2022-11-20T13:34:56;0.90;99.90
40151;DHT22;25866;52.420;10.640;2022-11-20T13:37:32;0.90;99.90
40151;DHT22;25866;52.420;10.640;2022-11-20T13:42:43;0.90;99.90
40151;DHT22;25866;52.420;10.640;2022-11-20T13:45:30;0.90;99.90
40151;DHT22;25866;52.420;10.640;2022-11-20T13:47:59;1.00;99.90
40151;DHT22;25866;52.420;10.640;2022-11-20T13:53:53;1.20;99.90
40151;DHT22;25866;52.420;10.640;2022-11-20T13:56:59;1.30;99.90
40151;DHT22;25866;52.420;10.640;2022-11-20T14:02:19;1.20;99.90
40151;DHT22;25866;52.420;10.640;2022-11-20T14:04:49;1.20;99.90
40151;DHT22;25866;52.420;10.640;2022-11-20T14:07:17;1.10;99.90
40151;DHT22;25866;52.420;10.640;2022-11-20T14:09:53;1.10;99.90
40151;DHT22;25866;52.420;10.640;2022-11-20T14:12:26;1.00;99.90
40151;DHT22;25866;52.420;10.640;2022-11-20T14:14:54;1.00;99.90
40151;DHT22;25866;52.420;10.640;2022-11-20T14:17:22;0.90;99.90
40151;DHT22;25866;52.420;10.640;2022-11-20T14:19:50;0.90;99.90
40151;DHT22;25866;52.420;10.640;2022-11-20T14:24:48;0.80;99.90
40151;DHT22;25866;52.420;10.640;2022-11-20T14:27:19;0.90;99.90
40151;DHT22;25866;52.420;10.640;2022-11-20T14:29:47;0.80;99.90
40151;DHT22;25866;52.420;10.640;2022-11-20T14:32:19;0.80;99.90
40151;DHT22;25866;52.420;10.640;2022-11-20T14:34:49;0.80;99.90
40151;DHT22;25866;52.420;10.640;2022-11-20T14:37:23;0.80;99.90
40151;DHT22;25866;52.420;10.640;2022-11-20T14:39:54;0.70;99.90
40151;DHT22;25866;52.420;10.640;2022-11-20T14:42:22;0.70;99.90
40151;DHT22;25866;52.420;10.640;2022-11-20T14:44:50;0.70;99.90
40151;DHT22;25866;52.420;10.640;2022-11-20T14:47:21;0.70;99.90
40151;DHT22;25866;52.420;10.640;2022-11-20T14:49:49;0.70;99.90
40151;DHT22;25866;52.420;10.640;2022-11-20T14:52:18;0.70;99.90
40151;DHT22;25866;52.420;10.640;2022-11-20T14:54:48;0.70;99.90
40151;DHT22;25866;52.420;10.640;2022-11-20T15:02:42;0.70;99.90
40151;DHT22;25866;52.420;10.640;2022-11-20T15:05:09;0.70;99.90
40151;DHT22;25866;52.420;10.640;2022-11-20T15:07:43;0.70;99.90
40151;DHT22;25866;52.420;10.640;2022-11-20T15:10:25;0.70;99.90
40151;DHT22;25866;52.420;10.640;2022-11-20T15:12:53;0.70;99.90
40151;DHT22;25866;52.420;10.640;2022-11-20T15:15:35;0.70;99.90
40151;DHT22;25866;52.420;10.640;2022-11-20T15:18:02;0.70;99.90
40151;DHT22;25866;52.420;10.640;2022-11-20T15:20:33;0.70;99.90
40151;DHT22;25866;52.420;10.640;2022-11-20T15:22:59;0.60;99.90
40151;DHT22;25866;52.420;10.640;2022-11-20T15:25:25;0.50;99.90
40151;DHT22;25866;52.420;10.640;2022-11-20T15:27:56;0.50;99.90
40151;DHT22;25866;52.420;10.640;2022-11-20T15:30:22;0.50;99.90
40151;DHT22;25866;52.420;10.640;2022-11-20T15:32:48;0.50;99.90
40151;DHT22;25866;52.420;10.640;2022-11-20T15:35:15;0.50;99.90
40151;DHT22;25866;52.420;10.640;2022-11-20T15:37:41;0.50;99.90
40151;DHT22;25866;52.420;10.640;2022-11-20T15:40:08;0.40;99.90
40151;DHT22;25866;52.420;10.640;2022-11-20T15:42:35;0.40;99.90
40151;DHT22;25866;52.420;10.640;2022-11-20T15:45:01;0.40;99.90
40151;DHT22;25866;52.420;10.640;2022-11-20T15:47:33;0.40;99.90
40151;DHT22;25866;52.420;10.640;2022-11-20T15:50:00;0.40;99.90
40151;DHT22;25866;52.420;10.640;2022-11-20T15:52:26;0.30;99.90
40151;DHT22;25866;52.420;10.640;2022-11-20T15:54:54;0.30;99.90
40151;DHT22;25866;52.420;10.640;2022-11-20T15:57:19;0.30;99.90
40151;DHT22;25866;52.420;10.640;2022-11-20T15:59:46;0.30;99.90
40151;DHT22;25866;52.420;10.640;2022-11-20T16:02:12;0.30;99.90
40151;DHT22;25866;52.420;10.640;2022-11-20T16:04:38;0.20;99.90
40151;DHT22;25866;52.420;10.640;2022-11-20T16:07:04;0.20;99.90
40151;DHT22;25866;52.420;10.640;2022-11-20T16:09:30;0.10;99.90
40151;DHT22;25866;52.420;10.640;2022-11-20T16:11:56;0.10;99.90
40151;DHT22;25866;52.420;10.640;2022-11-20T16:14:26;0.10;99.90
40151;DHT22;25866;52.420;10.640;2022-11-20T16:17:11;0.00;99.90
40151;DHT22;25866;52.420;10.640;2022-11-20T16:19:37;0.10;99.90
40151;DHT22;25866;52.420;10.640;2022-11-20T16:22:03;0.10;99.90
40151;DHT22;25866;52.420;10.640;2022-11-20T16:24:29;0.10;99.90
40151;DHT22;25866;52.420;10.640;2022-11-20T16:26:55;0.10;99.90
40151;DHT22;25866;52.420;10.640;2022-11-20T16:29:22;0.10;99.90
40151;DHT22;25866;52.420;10.640;2022-11-20T16:31:47;0.00;99.90
40151;DHT22;25866;52.420;10.640;2022-11-20T16:34:16;0.00;99.90
40151;DHT22;25866;52.420;10.640;2022-11-20T16:36:42;0.00;99.90
40151;DHT22;25866;52.420;10.640;2022-11-20T16:39:10;0.00;99.90
40151;DHT22;25866;52.420;10.640;2022-11-20T16:41:37;-0.10;99.90
40151;DHT22;25866;52.420;10.640;2022-11-20T16:44:07;-0.10;99.90
40151;DHT22;25866;52.420;10.640;2022-11-20T16:46:33;-0.20;99.90
40151;DHT22;25866;52.420;10.640;2022-11-20T16:49:02;-0.20;99.90
40151;DHT22;25866;52.420;10.640;2022-11-20T16:51:29;-0.30;99.90
40151;DHT22;25866;52.420;10.640;2022-11-20T16:53:55;-0.20;99.90
40151;DHT22;25866;52.420;10.640;2022-11-20T16:56:23;-0.30;99.90
40151;DHT22;25866;52.420;10.640;2022-11-20T16:58:50;-0.40;99.90
40151;DHT22;25866;52.420;10.640;2022-11-20T17:01:18;-0.40;99.90
40151;DHT22;25866;52.420;10.640;2022-11-20T17:03:52;-0.30;99.90
40151;DHT22;25866;52.420;10.640;2022-11-20T17:06:20;-0.30;99.90